Terminal Aerodrome Forecast
Issued by NWS

Home | Current Version | Previous Version | Text Only | Print | Product List | Glossary On
Versions: 1 2 3 4 5 6 7 8 9 10 11 12 13 14 15 16 17 18 19
000
FTUS43 KILX 221700 RRA
TAFCMI
TAF
KCMI 221741Z 2218/2318 23008KT P6SM -RA SCT035 BKN120
     FM222000 21008KT P6SM SCT035 BKN120
     FM230800 21005KT 5SM -RA BR VCTS BKN060CB
     FM231500 21008KT P6SM BKN120=

USA.gov is the U.S. government's official web portal to all federal, state and local government web resources and services.